Latest Coastal Weather Observations for Smithton

IDT60701

Issued at 9:32 am EST Friday 19 August 2022 (issued every 10 minutes, with the page automatically refreshed every 10 minutes)

About coastal observations | Map of coastal stations | Coastal observations for TAS | Marine services | Other Formats
Station Details ID: 091292 Name: SMITHTON AERODROME Lat: -40.83 Lon: 145.08 Height: 7.5 m
Data from the previous 72 hours. | See also: Recent months at Smithton
Date/Time
EST
Wind Sea
Height
m
Swell Vis
km
Cloud Weather Temp
°C
Press
MSL
hPa
Rain since
9am
mm
Dir  Spd
kts
Gust
kts
Height
m
Period
s
Dir
19/09:30am WNW 8 13 - - - - - - - 10.8 1009.8 0.0
19/09:00am WNW 5 6 - - - - - - - 9.6 1009.8 3.6
19/08:30am CALM 0 0 - - - - - - - 8.1 1009.8 3.6
19/08:00am CALM 0 2 - - - - - - - 6.5 1009.5 3.6
19/07:30am S 3 5 - - - - - - - 5.1 1009.2 3.6
19/07:00am CALM 0 0 - - - - - - - 4.6 1008.7 3.6
19/06:30am SW 5 6 - - - - - - - 5.2 1008.5 3.6
19/06:00am WNW 9 11 - - - - - - Recent precip. 6.2 1008.2 3.6
19/05:30am WNW 11 15 - - - - - - - 7.0 1008.1 3.4
19/05:00am W 7 9 - - - - - - - 5.6 1007.8 3.4
19/04:30am W 9 10 - - - - - - - 5.3 1007.4 3.4
19/04:00am WNW 8 8 - - - - - - - 4.6 1007.1 3.4
19/03:30am W 7 8 - - - - - - - 5.8 1006.9 3.4
19/03:00am W 7 8 - - - - - - Recent precip. 6.4 1006.7 3.4
19/02:36am W 10 19 - - - - - - - 7.6 1006.9 3.2
19/02:30am W 7 8 - - - - - - - 6.5 1006.7 3.2
19/02:00am W 10 17 - - - - - - - 7.7 1006.5 3.0
19/01:30am W 5 9 - - - - - - - 7.0 1006.2 3.0
19/01:00am W 8 9 - - - - - - - 6.9 1006.0 1.8
19/12:30am W 7 9 - - - - - - - 6.9 1005.5 1.8
19/12:00am WSW 10 13 - - - - - - - 8.6 1005.4 1.8
 
Date/Time
EST
Wind Sea
Height
m
Swell Vis
km
Cloud Weather Temp
°C
Press
MSL
hPa
Rain since
9am
mm
Dir  Spd
kts
Gust
kts
Height
m
Period
s
Dir
18/11:30pm WSW 11 14 - - - - - - - 9.1 1005.4 1.8
18/11:00pm W 13 16 - - - - - - - 9.5 1005.2 1.8
18/10:30pm W 10 13 - - - - - - - 9.4 1005.1 1.8
18/10:00pm WNW 10 13 - - - - - - - 9.3 1005.2 1.8
18/09:30pm W 9 11 - - - - - - - 9.2 1004.9 1.8
18/09:00pm WNW 10 14 - - - - - - - 9.2 1004.6 1.8
18/08:30pm WNW 7 8 - - - - - - - 8.9 1004.3 1.8
18/08:00pm WNW 8 10 - - - - - - - 9.3 1004.3 1.8
18/07:30pm W 9 12 - - - - - - - 9.1 1004.2 1.8
18/07:00pm W 11 14 - - - - - - - 9.7 1003.7 1.8
18/06:30pm W 9 11 - - - - - - - 10.2 1003.4 1.8
18/06:00pm W 8 10 - - - - - - - 9.9 1002.8 1.6
18/05:30pm WSW 9 12 - - - - - - - 10.3 1002.2 1.6
18/05:00pm WSW 11 15 - - - - - - - 11.2 1001.9 1.6
18/04:30pm W 13 17 - - - - - - - 12.0 1001.5 1.6
18/04:00pm W 17 22 - - - - - - - 12.1 1001.1 1.6
18/03:37pm W 20 30 - - - - - - - 12.3 1000.7 1.6
18/03:30pm W 22 30 - - - - - - - 12.2 1000.4 1.6
18/03:00pm W 22 29 - - - - - - Recent precip. 12.5 999.7 1.6
18/02:30pm WNW 21 30 - - - - - - - 12.5 999.4 1.6
18/02:13pm WNW 20 30 - - - - - - - 13.2 999.2 0.8
18/02:00pm WNW 22 31 - - - - - - - 14.1 999.1 0.8
18/01:51pm WNW 22 32 - - - - - - - 13.9 999.0 0.8
18/01:30pm WNW 23 31 - - - - - - - 13.5 999.1 0.8
18/01:00pm NW 26 36 - - - - - - - 15.6 998.9 0.6
18/12:30pm NW 23 34 - - - - - - - 14.9 999.0 0.6
18/12:29pm NW 23 34 - - - - - - - 14.9 999.0 0.6
18/12:05pm NW 15 29 - - - - - - - 13.9 999.2 0.6
18/12:00pm WNW 12 18 - - - - - - Recent precip. 13.1 999.3 0.6
18/11:30am WNW 26 39 - - - - - - - 12.0 999.8 0.4
18/11:28am NW 27 39 - - - - - - - 12.2 999.8 0.4
18/11:09am NW 21 32 - - - - - - - 15.7 999.6 0.0
18/11:00am NW 24 31 - - - - - - - 14.5 999.7 0.0
18/10:50am NW 22 32 - - - - - - - 15.1 999.6 0.0
18/10:30am NNW 24 33 - - - - - - - 14.9 999.6 0.0
18/10:05am NNW 23 36 - - - - - - - 13.9 999.7 0.0
18/10:00am NNW 24 32 - - - - - - - 13.8 999.7 0.0
18/09:39am NNW 23 34 - - - - - - - 13.3 1000.0 0.0
18/09:30am NNW 23 32 - - - - - - - 13.1 1000.0 0.0
18/09:04am NNW 19 29 - - - - - - - 13.4 1000.2 0.0
18/09:00am NNW 19 25 - - - - - - - 13.3 1000.3 -
18/08:31am N 16 28 - - - - - - - 12.7 1000.6 -
18/08:30am N 14 21 - - - - - - - 12.7 1000.6 5.8
18/08:00am NNW 10 14 - - - - - - - 12.4 1001.1 5.8
18/07:30am NNW 11 17 - - - - - - - 12.0 1001.0 5.8
18/07:00am N 13 18 - - - - - - - 12.0 1001.1 5.8
18/06:30am NNW 13 20 - - - - - - - 12.3 1001.8 5.6
18/06:00am NNW 13 18 - - - - - - - 12.6 1002.0 5.6
18/05:30am NNW 15 20 - - - - - - - 12.6 1002.1 5.6
18/05:00am NNW 15 20 - - - - - - - 12.5 1002.9 5.6
18/04:30am NNW 12 15 - - - - - - - 12.5 1003.2 5.6
18/04:00am NW 14 21 - - - - - - - 12.2 1003.1 5.6
18/03:30am NNW 14 19 - - - - - - - 12.4 1003.7 5.6
18/03:00am N 11 15 - - - - - - - 12.1 1004.0 5.6
18/02:30am N 12 19 - - - - - - - 12.0 1004.1 5.6
18/02:00am N 13 17 - - - - - - - 11.8 1005.0 5.6
18/01:30am N 11 16 - - - - - - - 11.9 1005.7 5.4
18/01:00am N 12 16 - - - - - - - 11.9 1006.6 5.4
18/12:30am N 11 16 - - - - - - - 11.8 1007.2 5.2
18/12:00am N 13 17 - - - - - - - 11.9 1007.4 5.2
 
Date/Time
EST
Wind Sea
Height
m
Swell Vis
km
Cloud Weather Temp
°C
Press
MSL
hPa
Rain since
9am
mm
Dir  Spd
kts
Gust
kts
Height
m
Period
s
Dir
17/11:30pm N 10 15 - - - - - - - 11.8 1007.9 5.2
17/11:00pm N 10 14 - - - - - - - 11.8 1008.4 5.2
17/10:30pm N 10 15 - - - - - - - 11.5 1008.6 5.0
17/10:00pm N 8 12 - - - - - - - 11.5 1009.4 5.0
17/09:30pm N 10 14 - - - - - - - 11.4 1009.4 5.0
17/09:00pm N 10 14 - - - - - - Recent precip. 11.4 1010.3 4.4
17/08:30pm N 10 13 - - - - - - - 11.2 1010.1 4.4
17/08:00pm N 10 14 - - - - - - - 11.4 1010.0 4.0
17/07:30pm N 9 13 - - - - - - - 11.2 1010.6 3.4
17/07:00pm N 9 12 - - - - - - - 11.3 1010.9 2.2
17/06:30pm N 8 11 - - - - - - - 11.4 1010.7 1.2
17/06:00pm N 10 13 - - - - - - Rain 11.4 1010.9 0.4
17/05:30pm NNE 10 14 - - - - - - - 11.6 1011.1 0.0
17/05:00pm N 10 14 - - - - - - - 11.6 1011.5 0.0
17/04:30pm N 10 13 - - - - - - - 11.7 1011.9 0.0
17/04:00pm N 11 14 - - - - - - - 11.9 1012.1 0.0
17/03:30pm N 11 15 - - - - - - - 12.1 1012.6 0.0
17/03:00pm N 11 16 - - - - - - - 12.4 1013.1 0.0
17/02:30pm N 12 18 - - - - - - - 12.4 1013.2 0.0
17/02:00pm N 13 17 - - - - - - - 13.1 1012.8 0.0
17/01:30pm NNE 11 16 - - - - - - - 13.3 1012.9 0.0
17/01:00pm NNE 10 14 - - - - - - - 13.5 1014.0 0.0
17/12:30pm N 10 14 - - - - - - - 12.2 1014.8 0.0
17/12:00pm NNE 10 12 - - - - - - - 12.3 1015.0 0.0
17/11:30am NNE 10 13 - - - - - - - 12.2 1016.0 0.0
17/11:00am N 9 12 - - - - - - - 11.7 1016.5 0.0
17/10:30am N 10 13 - - - - - - - 12.0 1016.8 0.0
17/10:00am NNE 6 8 - - - - - - - 11.1 1017.0 0.0
17/09:30am NNE 6 7 - - - - - - - 10.2 1017.0 0.0
17/09:00am NNE 2 3 - - - - - - - 9.4 1016.8 0.4
17/08:30am CALM 0 0 - - - - - - - 7.4 1016.9 0.4
17/08:00am CALM 0 3 - - - - - - - 5.1 1017.0 0.4
17/07:30am CALM 0 0 - - - - - - - 4.8 1016.7 0.4
17/07:00am CALM 0 0 - - - - - - - 5.8 1016.4 0.4
17/06:30am CALM 0 0 - - - - - - - 6.0 1016.6 0.4
17/06:00am SW 2 5 - - - - - - - 6.4 1016.7 0.4
17/05:30am SW 3 5 - - - - - - - 5.9 1016.6 0.4
17/05:00am WSW 1 5 - - - - - - - 5.2 1016.7 0.4
17/04:30am CALM 0 3 - - - - - - - 4.8 1016.6 0.4
17/04:00am SW 5 5 - - - - - - - 4.8 1015.9 0.4
17/03:30am WSW 4 5 - - - - - - - 5.6 1015.9 0.2
17/03:00am WSW 8 9 - - - - - - - 5.7 1015.9 0.2
17/02:30am W 4 6 - - - - - - - 6.1 1016.1 0.2
17/02:00am NNW 2 5 - - - - - - - 6.3 1016.1 0.2
17/01:30am SW 8 9 - - - - - - - 6.4 1015.6 0.2
17/01:00am SSW 7 11 - - - - - - - 7.8 1016.0 0.2
17/12:30am SW 9 12 - - - - - - - 8.1 1016.0 0.2
17/12:00am WSW 8 13 - - - - - - Recent precip. 8.1 1015.9 0.2
 
Date/Time
EST
Wind Sea
Height
m
Swell Vis
km
Cloud Weather Temp
°C
Press
MSL
hPa
Rain since
9am
mm
Dir  Spd
kts
Gust
kts
Height
m
Period
s
Dir
16/11:30pm SW 7 10 - - - - - - - 7.5 1015.8 0.2
16/11:00pm SW 8 12 - - - - - - - 7.7 1016.2 0.0
16/10:30pm SW 9 11 - - - - - - - 8.1 1016.0 0.0
16/10:00pm SSW 9 10 - - - - - - - 7.8 1015.9 0.0
16/09:30pm SSW 7 9 - - - - - - - 8.4 1016.0 0.0
16/09:00pm SW 9 13 - - - - - - - 8.7 1015.8 0.0
16/08:30pm SW 8 11 - - - - - - - 8.9 1015.5 0.0
16/08:00pm SSW 12 15 - - - - - - - 9.2 1015.2 0.0
16/07:30pm SSW 11 14 - - - - - - - 9.4 1015.3 0.0
16/07:00pm SW 12 16 - - - - - - - 9.9 1015.5 0.0
16/06:30pm SW 13 18 - - - - - - - 10.3 1015.4 0.0
16/06:00pm SW 15 20 - - - - - - - 10.8 1014.7 0.0
16/05:30pm SW 12 15 - - - - - - - 10.9 1013.3 0.0
16/05:00pm SW 11 16 - - - - - - - 12.1 1012.6 0.0
16/04:30pm SSW 13 18 - - - - - - - 12.7 1012.0 0.0
16/04:00pm SSW 15 21 - - - - - - - 13.1 1011.7 0.0
16/03:30pm SW 17 22 - - - - - - - 13.5 1011.4 0.0
16/03:00pm SW 17 22 - - - - - - - 13.2 1011.3 0.0
16/02:30pm SW 15 21 - - - - - - - 13.6 1011.0 0.0
16/02:00pm SW 16 23 - - - - - - - 14.0 1010.8 0.0
16/01:30pm SW 14 18 - - - - - - - 14.1 1010.5 0.0
16/01:00pm SSW 16 24 - - - - - - - 13.6 1010.2 0.0
16/12:30pm SSW 14 19 - - - - - - - 13.6 1010.1 0.0
16/12:00pm SW 15 21 - - - - - - - 13.7 1010.2 0.0
16/11:30am SSW 15 20 - - - - - - - 13.6 1010.0 0.0
16/11:00am SW 15 19 - - - - - - - 12.9 1009.6 0.0
16/10:30am SW 11 15 - - - - - - - 13.3 1009.2 0.0
16/10:00am SW 13 18 - - - - - - - 12.5 1008.9 0.0

Other formats

Comma delimited format used in spreadsheet applications
http://www.bom.gov.au/fwo/IDT60701/IDT60701.94953.axf

JavaScript Object Notation format (JSON) in row-major order
http://www.bom.gov.au/fwo/IDT60701/IDT60701.94953.json

Data quality

Most of these data are generated automatically and are frequently updated. Quality checks on data are not normally performed. It is possible for incorrect values to appear. Refer to information at About Latest Weather Observations and please check the disclaimer before using these data.